createdAt,value
2023-02-15T00:00:10.119Z,96047.88
2023-02-15T00:02:48.392Z,96059.61
2023-02-15T00:05:21.079Z,96062.07
2023-02-15T00:07:57.827Z,96083.93
2023-02-15T00:10:30.868Z,96087.79
2023-02-15T00:13:01.084Z,96099.28
2023-02-15T00:15:33.358Z,96105.87
2023-02-15T00:18:03.363Z,96116.24
2023-02-15T00:20:34.931Z,96124.17
2023-02-15T00:23:06.370Z,96134.86
2023-02-15T00:25:36.290Z,96152.33
2023-02-15T00:28:06.621Z,96162.18
2023-02-15T00:30:39.658Z,96175.84
2023-02-15T00:33:09.763Z,96187.89
2023-02-15T00:35:43.902Z,96196.34
2023-02-15T00:38:14.389Z,96205.09
2023-02-15T00:40:44.355Z,96210.28
2023-02-15T00:43:14.340Z,96210.84
2023-02-15T00:45:46.601Z,96224.27
2023-02-15T00:48:17.747Z,96235.76
2023-02-15T00:50:49.344Z,96258.15
2023-02-15T00:53:19.894Z,96262.25
2023-02-15T00:55:50.106Z,96259.13
2023-02-15T00:58:21.696Z,96287.40
2023-02-15T01:00:52.860Z,96291.78
2023-02-15T01:03:23.048Z,96306.81
2023-02-15T01:05:55.264Z,96309.27
2023-02-15T01:08:26.866Z,96310.14
2023-02-15T01:10:56.786Z,96319.95
2023-02-15T01:13:26.631Z,96318.59
2023-02-15T01:15:57.332Z,96333.09
2023-02-15T01:18:27.273Z,96348.12
2023-02-15T01:20:57.116Z,96369.98
2023-02-15T01:23:31.496Z,96369.98
2023-02-15T01:26:04.353Z,96362.38
2023-02-15T01:28:36.859Z,96373.87
2023-02-15T01:31:11.800Z,96383.42
2023-02-15T01:33:41.798Z,96384.52
2023-02-15T01:36:11.633Z,96397.93
2023-02-15T01:38:44.771Z,96405.07
2023-02-15T01:41:27.864Z,96408.61
2023-02-15T01:43:59.319Z,96417.61
2023-02-15T01:46:40.679Z,96424.73
2023-02-15T01:49:16.557Z,96428.82
2023-02-15T01:54:27.893Z,96448.19
2023-02-15T01:57:00.449Z,96446.37
2023-02-15T01:59:30.856Z,96462.20
2023-02-15T02:02:01.368Z,96467.66
2023-02-15T02:04:40.195Z,96474.25
2023-02-15T02:07:11.693Z,96476.70
2023-02-15T02:09:41.977Z,96479.43
2023-02-15T02:12:11.916Z,96493.09
2023-02-15T02:14:42.323Z,96498.86
2023-02-15T02:17:35.243Z,96502.95
2023-02-15T02:20:10.599Z,96514.45
2023-02-15T02:22:59.536Z,96516.64
2023-02-15T02:25:44.010Z,96527.02
2023-02-15T02:28:33.043Z,96531.95
2023-02-15T02:31:22.224Z,96533.87
2023-02-15T02:34:01.389Z,96533.06
2023-02-15T02:36:58.108Z,96542.07
2023-02-15T02:40:05.511Z,96543.19
2023-02-15T02:42:50.353Z,96553.83
2023-02-15T02:45:35.826Z,96550.04
2023-02-15T02:48:11.229Z,96553.86
2023-02-15T02:50:42.076Z,96562.05
2023-02-15T02:53:15.919Z,96559.07
2023-02-15T02:55:54.322Z,96565.09
2023-02-15T02:58:26.333Z,96567.02
2023-02-15T03:01:03.354Z,96569.75
2023-02-15T03:03:36.107Z,96572.48
2023-02-15T03:06:09.299Z,96578.77
2023-02-15T03:08:41.313Z,96578.77
2023-02-15T03:11:11.369Z,96581.25
2023-02-15T03:13:41.520Z,96579.61
2023-02-15T03:16:32.067Z,96587.80
2023-02-15T03:19:05.023Z,96582.09
2023-02-15T03:21:43.644Z,96584.82
2023-02-15T03:24:19.720Z,96586.74
2023-02-15T03:26:59.039Z,96594.09
2023-02-15T03:29:31.140Z,96598.19
2023-02-15T03:32:03.971Z,96604.77
2023-02-15T03:34:46.247Z,96599.62
2023-02-15T03:37:33.370Z,96609.17
2023-02-15T03:40:36.604Z,96621.98
2023-02-15T03:43:12.306Z,96630.48
2023-02-15T03:45:45.410Z,96654.51
2023-02-15T03:48:18.283Z,96665.18
2023-02-15T03:51:08.581Z,96667.63
2023-02-15T03:53:43.615Z,96670.11
2023-02-15T03:56:17.865Z,96672.28
2023-02-15T03:59:09.232Z,96668.45
2023-02-15T04:02:07.015Z,96676.66
2023-02-15T04:04:50.554Z,96672.84
2023-02-15T04:07:25.007Z,96670.37
2023-02-15T04:10:13.238Z,96667.95
2023-02-15T04:12:46.210Z,96670.41
2023-02-15T04:18:48.357Z,96682.44
2023-02-15T04:21:36.872Z,96668.33
2023-02-15T04:24:25.902Z,96688.17
2023-02-15T04:26:59.440Z,96691.45
2023-02-15T04:29:30.641Z,96690.09
2023-02-15T04:32:05.839Z,96701.84
2023-02-15T04:34:38.469Z,96699.95
2023-02-15T04:37:18.692Z,96707.30
2023-02-15T04:42:52.060Z,96700.45
2023-02-15T04:45:21.970Z,96704.88
2023-02-15T04:47:52.014Z,96709.24
2023-02-15T04:50:22.091Z,96716.63
2023-02-15T04:52:52.011Z,96715.01
2023-02-15T04:55:21.843Z,96721.28
2023-02-15T04:57:53.122Z,96722.39
2023-02-15T05:00:36.243Z,96722.91
2023-02-15T05:03:06.432Z,96717.20
2023-02-15T05:05:36.372Z,96719.67
2023-02-15T05:08:06.355Z,96720.20
2023-02-15T05:10:37.524Z,96725.66
2023-02-15T05:13:07.374Z,96715.59
2023-02-15T05:15:37.468Z,96727.88
2023-02-15T05:18:08.101Z,96727.59
2023-02-15T05:20:37.909Z,96726.53
2023-02-15T05:23:07.806Z,96732.80
2023-02-15T05:25:55.029Z,96730.90
2023-02-15T05:28:25.252Z,96730.09
2023-02-15T05:31:13.143Z,96737.19
2023-02-15T05:33:43.129Z,96744.56
2023-02-15T05:36:12.965Z,96745.13
2023-02-15T05:38:42.885Z,96745.36
2023-02-15T05:41:12.875Z,96741.56
2023-02-15T05:43:42.706Z,96744.30
2023-02-15T05:46:12.746Z,96744.04
2023-02-15T05:48:42.672Z,96741.83
2023-02-15T05:51:16.760Z,96744.31
2023-02-15T05:53:47.524Z,96740.48
2023-02-15T05:56:18.552Z,96740.50
2023-02-15T05:58:49.632Z,96733.67
2023-02-15T06:01:20.850Z,96736.96
2023-02-15T06:03:51.180Z,96737.27
2023-02-15T06:06:21.750Z,96742.16
2023-02-15T06:08:51.790Z,96744.35
2023-02-15T06:11:24.238Z,96747.91
2023-02-15T06:13:53.466Z,96753.65
2023-02-15T06:16:23.351Z,96746.54
2023-02-15T06:18:53.860Z,96750.38
2023-02-15T06:21:23.855Z,96750.38
2023-02-15T06:23:53.782Z,96751.20
2023-02-15T06:26:23.700Z,96747.11
2023-02-15T06:28:53.543Z,96738.11
2023-02-15T06:31:23.505Z,96743.03
2023-02-15T06:33:53.556Z,96746.86
2023-02-15T06:36:23.404Z,96747.42
2023-02-15T06:38:53.432Z,96753.14
2023-02-15T06:41:23.270Z,96755.88
2023-02-15T06:43:55.339Z,96746.63
2023-02-15T06:46:25.343Z,96747.98
2023-02-15T06:48:55.181Z,96746.34
2023-02-15T06:51:24.997Z,96748.00
2023-02-15T06:53:57.545Z,96742.81
2023-02-15T06:56:29.661Z,96742.55
2023-02-15T06:58:59.597Z,96743.37
2023-02-15T07:01:29.734Z,96751.01
2023-02-15T07:03:59.563Z,96749.65
2023-02-15T07:06:29.557Z,96754.29
2023-02-15T07:08:59.583Z,96757.59
2023-02-15T07:11:46.628Z,96768.50
2023-02-15T07:14:16.541Z,96758.66
2023-02-15T07:16:46.417Z,96760.03
2023-02-15T07:19:17.374Z,96759.52
2023-02-15T07:21:50.173Z,96760.88
2023-02-15T07:24:20.859Z,96759.23
2023-02-15T07:26:51.456Z,96771.25
2023-02-15T07:29:22.195Z,96778.34
2023-02-15T07:31:52.045Z,96781.38
2023-02-15T07:34:21.923Z,96785.45
2023-02-15T07:36:53.621Z,96784.64
2023-02-15T07:39:23.648Z,96794.45
2023-02-15T07:41:53.597Z,96797.99
2023-02-15T07:44:23.582Z,96810.02
2023-02-15T07:46:53.493Z,96821.48
2023-02-15T07:49:23.458Z,96826.64
2023-02-15T07:51:53.396Z,96827.20
2023-02-15T07:54:23.394Z,96827.49
2023-02-15T07:56:53.410Z,96832.66
2023-02-15T07:59:23.297Z,96840.29
2023-02-15T08:01:54.826Z,96835.39
2023-02-15T08:04:24.908Z,96844.13
2023-02-15T08:06:56.472Z,96841.66
2023-02-15T08:09:26.426Z,96835.95
2023-02-15T08:11:56.432Z,96834.59
2023-02-15T08:14:26.664Z,96829.42
2023-02-15T08:16:57.886Z,96824.50
2023-02-15T08:19:31.717Z,96818.78
2023-02-15T08:22:03.398Z,96834.89
2023-02-15T08:24:34.473Z,96839.50
2023-02-15T08:27:06.519Z,96835.16
2023-02-15T08:29:37.053Z,96839.25
2023-02-15T08:32:11.513Z,96852.63
2023-02-15T08:34:43.181Z,96853.44
2023-02-15T08:37:13.397Z,96858.63
2023-02-15T08:39:45.198Z,96854.80
2023-02-15T08:42:15.422Z,96857.27
2023-02-15T08:44:45.464Z,96852.34
2023-02-15T08:47:15.466Z,96852.08
2023-02-15T08:49:45.455Z,96850.46
2023-02-15T08:52:15.368Z,96849.09
2023-02-15T08:54:45.367Z,96849.88
2023-02-15T08:57:15.434Z,96855.89
2023-02-15T08:59:45.356Z,96852.87
2023-02-15T09:02:15.293Z,96853.16
2023-02-15T09:04:45.198Z,96850.98
2023-02-15T09:07:15.308Z,96850.70
2023-02-15T09:09:46.786Z,96854.23
2023-02-15T09:12:16.739Z,96854.23
2023-02-15T09:14:46.620Z,96860.25
2023-02-15T09:17:16.722Z,96862.16
2023-02-15T09:19:46.652Z,96862.45
2023-02-15T09:22:16.517Z,96854.80
2023-02-15T09:24:46.500Z,96849.63
2023-02-15T09:27:16.410Z,96853.72
2023-02-15T09:29:46.270Z,96861.09
2023-02-15T09:32:19.663Z,96864.63
2023-02-15T09:34:51.977Z,96863.81
2023-02-15T09:37:22.470Z,96853.44
2023-02-15T09:39:52.517Z,96859.44
2023-02-15T09:42:43.143Z,96867.06
2023-02-15T09:45:24.688Z,96865.19
2023-02-15T09:47:57.310Z,96862.72
2023-02-15T09:50:48.960Z,96864.08
2023-02-15T09:53:37.283Z,96851.00
2023-02-15T09:56:26.177Z,96846.11
2023-02-15T09:59:13.697Z,96839.30
2023-02-15T10:02:04.392Z,96845.30
2023-02-15T10:04:59.794Z,96852.92
2023-02-15T10:07:56.374Z,96845.00
2023-02-15T10:10:32.133Z,96846.37
2023-02-15T10:13:16.700Z,96859.73
2023-02-15T10:15:58.963Z,96857.82
2023-02-15T10:18:40.290Z,96854.84
2023-02-15T10:21:32.463Z,96858.63
2023-02-15T10:24:11.166Z,96881.28
2023-02-15T10:26:48.624Z,96900.62
2023-02-15T10:29:28.613Z,96910.70
2023-02-15T10:32:04.723Z,96910.70
2023-02-15T10:34:55.536Z,96911.52
2023-02-15T10:38:01.541Z,96900.91
2023-02-15T10:40:43.068Z,96907.72
2023-02-15T10:43:36.537Z,96917.77
2023-02-15T10:46:21.513Z,96912.88
2023-02-15T10:49:09.406Z,96900.35
2023-02-15T10:51:42.119Z,96904.70
2023-02-15T10:54:14.761Z,96907.97
2023-02-15T10:57:08.371Z,96916.14
2023-02-15T10:59:44.008Z,96923.77
2023-02-15T11:02:28.676Z,96932.49
2023-02-15T11:05:04.539Z,96940.95
2023-02-15T11:07:36.534Z,96939.30
2023-02-15T11:10:17.380Z,96945.30
2023-02-15T11:12:46.434Z,96948.28
2023-02-15T11:15:36.319Z,96951.01
2023-02-15T11:18:26.761Z,96957.55
2023-02-15T11:21:14.864Z,96964.37
2023-02-15T11:23:46.496Z,96968.71
2023-02-15T11:26:22.049Z,96966.27
2023-02-15T11:28:58.797Z,96970.36
2023-02-15T11:31:32.577Z,96966.02
2023-02-15T11:34:04.779Z,96966.27
2023-02-15T11:36:42.611Z,96970.91
2023-02-15T11:39:17.247Z,96961.37
2023-02-15T11:41:56.614Z,96960.27
2023-02-15T11:44:35.198Z,96971.16
2023-02-15T11:47:05.251Z,96982.87
2023-02-15T11:49:36.114Z,96981.50
2023-02-15T11:52:10.788Z,96979.62
2023-02-15T11:54:42.470Z,96979.88
2023-02-15T11:57:52.352Z,96991.32
2023-02-15T12:00:36.158Z,96989.70
2023-02-15T12:03:14.508Z,96995.41
2023-02-15T12:05:45.086Z,97003.04
2023-02-15T12:08:20.479Z,96997.34
2023-02-15T12:11:05.107Z,97041.76
2023-02-15T12:13:35.129Z,97059.48
2023-02-15T12:16:11.472Z,97054.58
2023-02-15T12:18:42.490Z,97048.34
2023-02-15T12:21:17.671Z,97058.72
2023-02-15T12:23:53.092Z,97061.98
2023-02-15T12:26:31.540Z,97081.91
2023-02-15T12:29:03.889Z,97093.16
2023-02-15T12:31:39.417Z,97093.70
2023-02-15T12:34:18.062Z,97102.16
2023-02-15T12:36:50.986Z,97101.09
2023-02-15T12:39:24.046Z,97077.88
2023-02-15T12:42:02.556Z,97086.88
2023-02-15T12:44:34.458Z,97092.64
2023-02-15T12:47:06.646Z,97092.64
2023-02-15T12:49:38.193Z,97077.33
2023-02-15T12:52:09.648Z,97090.98
2023-02-15T12:54:41.869Z,97077.03
2023-02-15T12:57:31.745Z,97069.42
2023-02-15T13:00:05.718Z,97062.84
2023-02-15T13:02:47.583Z,97058.19
2023-02-15T13:05:39.448Z,97060.91
2023-02-15T13:08:23.310Z,97060.64
2023-02-15T13:11:12.362Z,97058.97
2023-02-15T13:13:58.350Z,97067.16
2023-02-15T13:16:35.633Z,97071.24
2023-02-15T13:19:12.282Z,97069.05
2023-02-15T13:21:45.468Z,97076.13
2023-02-15T13:24:32.820Z,97089.52
2023-02-15T13:27:15.056Z,97091.95
2023-02-15T13:29:36.727Z,97092.48
2023-02-15T13:32:25.876Z,97085.89
2023-02-15T13:35:05.351Z,97077.72
2023-02-15T13:37:56.825Z,97088.63
2023-02-15T13:40:28.520Z,97080.68
2023-02-15T13:43:12.452Z,97089.16
2023-02-15T13:46:01.818Z,97075.18
2023-02-15T13:48:51.252Z,97071.61
2023-02-15T13:51:29.749Z,97072.11
2023-02-15T13:54:02.715Z,97080.59
2023-02-15T13:56:38.332Z,97087.40
2023-02-15T13:59:27.358Z,97089.01
2023-02-15T14:02:09.724Z,97093.36
2023-02-15T14:05:15.610Z,97091.70
2023-02-15T14:07:59.495Z,97089.77
2023-02-15T14:10:57.474Z,97099.56
2023-02-15T14:14:02.927Z,97102.58
2023-02-15T14:16:54.446Z,97109.36
2023-02-15T14:19:47.723Z,97120.83
2023-02-15T14:22:36.604Z,97118.36
2023-02-15T14:25:21.560Z,97126.54
2023-02-15T14:28:12.722Z,97135.55
2023-02-15T14:30:44.234Z,97147.57
2023-02-15T14:33:19.469Z,97159.57
2023-02-15T14:35:50.044Z,97166.40
2023-02-15T14:38:41.513Z,97170.47
2023-02-15T14:41:14.236Z,97171.33
2023-02-15T14:44:01.859Z,97178.17
2023-02-15T14:46:40.665Z,97182.81
2023-02-15T14:49:16.418Z,97186.11
2023-02-15T14:51:52.111Z,97194.34
2023-02-15T14:54:27.673Z,97214.61
2023-02-15T14:57:11.980Z,97223.09
2023-02-15T15:00:04.360Z,97221.20
2023-02-15T15:02:49.619Z,97225.02
2023-02-15T15:05:28.310Z,97222.03
2023-02-15T15:07:59.518Z,97216.83
2023-02-15T15:10:40.948Z,97228.08
2023-02-15T15:13:37.441Z,97235.73
2023-02-15T15:16:29.115Z,97255.45
2023-02-15T15:19:01.336Z,97273.50
2023-02-15T15:21:53.843Z,97281.72
2023-02-15T15:24:47.084Z,97283.64
2023-02-15T15:27:43.383Z,97283.91
2023-02-15T15:30:27.990Z,97284.98
2023-02-15T15:33:00.681Z,97298.41
2023-02-15T15:35:54.969Z,97303.89
2023-02-15T15:38:52.993Z,97301.16
2023-02-15T15:41:54.552Z,97307.44
2023-02-15T15:44:52.444Z,97312.66
2023-02-15T15:47:51.250Z,97305.02
2023-02-15T15:50:20.467Z,97296.25
2023-02-15T15:53:00.190Z,97297.08
2023-02-15T15:55:32.244Z,97292.42
2023-02-15T15:58:09.590Z,97286.70
2023-02-15T16:00:49.845Z,97290.80
2023-02-15T16:03:25.101Z,97292.43
2023-02-15T16:05:57.986Z,97281.23
2023-02-15T16:08:38.751Z,97279.31
2023-02-15T16:11:20.226Z,97275.77
2023-02-15T16:13:50.242Z,97276.59
2023-02-15T16:16:30.427Z,97279.06
2023-02-15T16:19:01.387Z,97279.87
2023-02-15T16:21:38.851Z,97276.33
2023-02-15T16:24:11.407Z,97271.13
2023-02-15T16:27:02.314Z,97267.32
2023-02-15T16:29:39.423Z,97268.95
2023-02-15T16:32:26.374Z,97272.80
2023-02-15T16:34:57.727Z,97280.45
2023-02-15T16:37:29.607Z,97276.64
2023-02-15T16:39:59.509Z,97264.05
2023-02-15T16:42:32.002Z,97265.71
2023-02-15T16:45:13.648Z,97269.52
2023-02-15T16:47:45.506Z,97269.27
2023-02-15T16:50:20.995Z,97269.81
2023-02-15T16:52:51.481Z,97256.15
2023-02-15T16:55:31.920Z,97255.34
2023-02-15T16:58:04.362Z,97248.21
2023-02-15T17:00:37.155Z,97245.77
2023-02-15T17:03:11.151Z,97236.72
2023-02-15T17:05:48.939Z,97225.27
2023-02-15T17:08:25.115Z,97217.59
2023-02-15T17:11:06.703Z,97207.77
2023-02-15T17:13:36.560Z,97191.36
2023-02-15T17:16:09.327Z,97183.46
2023-02-15T17:19:00.291Z,97182.61
2023-02-15T17:21:32.990Z,97167.32
2023-02-15T17:24:05.085Z,97162.12
2023-02-15T17:26:38.812Z,97150.93
2023-02-15T17:29:23.263Z,97137.26
2023-02-15T17:31:54.121Z,97134.55
2023-02-15T17:34:46.339Z,97123.91
2023-02-15T17:37:41.751Z,97115.98
2023-02-15T17:40:26.113Z,97106.43
2023-02-15T17:42:55.189Z,97097.97
2023-02-15T17:45:26.084Z,97090.88
2023-02-15T17:47:56.021Z,97081.58
2023-02-15T17:50:26.957Z,97079.95
2023-02-15T17:52:57.355Z,97068.73
2023-02-15T17:55:45.923Z,97056.19
2023-02-15T17:58:16.882Z,97046.63
2023-02-15T18:01:06.740Z,97036.80
2023-02-15T18:04:05.330Z,97029.97
2023-02-15T18:06:52.656Z,97026.40
2023-02-15T18:09:40.555Z,97018.20
2023-02-15T18:12:27.345Z,97009.50
2023-02-15T18:14:57.359Z,97012.48
2023-02-15T18:17:41.183Z,97000.20
2023-02-15T18:20:19.955Z,96988.45
2023-02-15T18:22:51.928Z,96984.91
2023-02-15T18:25:24.701Z,96983.81
2023-02-15T18:27:55.476Z,96965.02
2023-02-15T18:30:27.264Z,96973.16
2023-02-15T18:32:58.292Z,96967.44
2023-02-15T18:35:30.570Z,96969.36
2023-02-15T18:38:00.619Z,96955.96
2023-02-15T18:40:30.562Z,96944.78
2023-02-15T18:43:01.836Z,96932.22
2023-02-15T18:45:35.864Z,96913.92
2023-02-15T18:48:07.431Z,96900.27
2023-02-15T18:50:37.793Z,96893.99
2023-02-15T18:53:09.238Z,96899.98
2023-02-15T18:55:39.068Z,96905.44
2023-02-15T18:58:10.329Z,96911.46
2023-02-15T19:00:40.166Z,96907.11
2023-02-15T19:03:11.000Z,96906.00
2023-02-15T19:05:40.935Z,96901.64
2023-02-15T19:08:17.024Z,96896.19
2023-02-15T19:10:46.891Z,96888.81
2023-02-15T19:13:18.171Z,96889.63
2023-02-15T19:15:48.040Z,96868.88
2023-02-15T19:18:18.383Z,96880.92
2023-02-15T19:20:48.668Z,96874.34
2023-02-15T19:23:20.468Z,96874.09
2023-02-15T19:25:50.950Z,96852.77
2023-02-15T19:28:26.568Z,96850.03
2023-02-15T19:30:59.212Z,96840.78
2023-02-15T19:33:29.317Z,96832.58
2023-02-15T19:35:59.329Z,96834.76
2023-02-15T19:38:32.718Z,96838.59
2023-02-15T19:41:05.485Z,96826.56
2023-02-15T19:43:35.370Z,96821.91
2023-02-15T19:46:05.551Z,96821.91
2023-02-15T19:48:35.657Z,96810.17
2023-02-15T19:51:05.882Z,96802.54
2023-02-15T19:53:35.959Z,96801.73
2023-02-15T19:56:06.071Z,96798.44
2023-02-15T19:58:36.332Z,96791.89
2023-02-15T20:01:06.807Z,96793.53
2023-02-15T20:03:37.009Z,96784.23
2023-02-15T20:06:07.083Z,96779.86
2023-02-15T20:08:38.636Z,96777.41
2023-02-15T20:11:12.402Z,96764.56
2023-02-15T20:13:43.688Z,96760.47
2023-02-15T20:16:13.584Z,96749.54
2023-02-15T20:18:46.321Z,96744.63
2023-02-15T20:21:17.493Z,96736.44
2023-02-15T20:23:47.596Z,96730.98
2023-02-15T20:26:18.928Z,96739.17
2023-02-15T20:28:50.054Z,96739.17
2023-02-15T20:31:22.502Z,96732.09
2023-02-15T20:33:55.626Z,96725.52
2023-02-15T20:36:25.564Z,96714.36
2023-02-15T20:38:57.025Z,96733.15
2023-02-15T20:41:40.268Z,96729.34
2023-02-15T20:44:29.767Z,96736.16
2023-02-15T20:47:00.920Z,96723.87
2023-02-15T20:49:30.852Z,96722.20
2023-02-15T20:52:00.798Z,96719.22
2023-02-15T20:54:32.314Z,96719.78
2023-02-15T20:57:02.739Z,96708.55
2023-02-15T20:59:33.370Z,96707.44
2023-02-15T21:02:04.811Z,96700.36
2023-02-15T21:04:35.231Z,96702.53
2023-02-15T21:07:05.200Z,96691.05
2023-02-15T21:09:37.531Z,96687.23
2023-02-15T21:12:07.690Z,96683.14
2023-02-15T21:14:43.521Z,96675.20
2023-02-15T21:17:17.034Z,96670.84
2023-02-15T21:19:46.985Z,96671.66
2023-02-15T21:22:17.073Z,96671.91
2023-02-15T21:24:52.173Z,96664.55
2023-02-15T21:27:23.181Z,96660.97
2023-02-15T21:29:53.784Z,96646.25
2023-02-15T21:32:24.447Z,96640.78
2023-02-15T21:34:54.411Z,96636.11
2023-02-15T21:37:27.039Z,96631.45
2023-02-15T21:39:56.927Z,96630.62
2023-02-15T21:42:44.069Z,96618.86
2023-02-15T21:45:37.688Z,96618.02
2023-02-15T21:48:07.636Z,96620.23
2023-02-15T21:50:54.252Z,96610.08
2023-02-15T21:53:34.880Z,96610.08
2023-02-15T21:56:06.675Z,96605.98
2023-02-15T21:58:38.130Z,96604.03
2023-02-15T22:01:08.348Z,96594.73
2023-02-15T22:03:38.818Z,96589.79
2023-02-15T22:06:08.773Z,96588.67
2023-02-15T22:08:38.654Z,96581.56
2023-02-15T22:11:16.824Z,96579.92
2023-02-15T22:13:46.870Z,96584.52
2023-02-15T22:16:24.059Z,96578.22
2023-02-15T22:18:54.311Z,96565.92
2023-02-15T22:21:24.642Z,96570.27
2023-02-15T22:23:54.638Z,96566.48
2023-02-15T22:26:26.079Z,96567.80
2023-02-15T22:28:55.905Z,96560.65
2023-02-15T22:31:25.883Z,96562.30
2023-02-15T22:33:56.023Z,96557.92
2023-02-15T22:36:30.027Z,96553.55
2023-02-15T22:38:59.209Z,96553.80
2023-02-15T22:41:30.849Z,96556.49
2023-02-15T22:44:00.886Z,96557.83
2023-02-15T22:46:30.805Z,96555.91
2023-02-15T22:49:00.643Z,96563.83
2023-02-15T22:51:34.053Z,96564.63
2023-02-15T22:54:03.968Z,96562.98
2023-02-15T22:56:42.825Z,96559.13
2023-02-15T22:59:25.152Z,96562.64
2023-02-15T23:01:55.439Z,96562.36
2023-02-15T23:04:27.548Z,96557.42
2023-02-15T23:06:59.502Z,96553.30
2023-02-15T23:09:29.477Z,96559.29
2023-02-15T23:11:59.491Z,96567.77
2023-02-15T23:14:32.171Z,96568.58
2023-02-15T23:17:02.081Z,96572.36
2023-02-15T23:19:31.957Z,96572.64
2023-02-15T23:22:03.159Z,96587.09
2023-02-15T23:24:34.503Z,96596.09
2023-02-15T23:27:22.213Z,96596.63
2023-02-15T23:29:52.490Z,96602.09
2023-02-15T23:32:23.530Z,96602.34
2023-02-15T23:34:54.508Z,96603.95
2023-02-15T23:37:24.463Z,96611.07
2023-02-15T23:40:11.718Z,96620.08
2023-02-15T23:42:41.569Z,96637.05
2023-02-15T23:45:16.924Z,96652.33
2023-02-15T23:48:04.429Z,96655.34
2023-02-15T23:50:34.384Z,96667.09
2023-02-15T23:53:04.249Z,96665.16
2023-02-15T23:55:38.619Z,96668.70
2023-02-15T23:58:08.944Z,96671.44
